Menu Close Menu
Station Historical Data
Daily Summary for March 30, 2017 Units:  English    Metric   Both
« Previous Day
Next Day »
Daily Weekly Monthly Yearly Custom
  High: Low: Average:
Temperature: 81.7 °F 60.3 °F 70.5 °F
Dew Point: 58.8 °F 47.0 °F 55 °F
Humidity: 89% 32% 61%
Wind Speed: 3.0mph 0.0mph 0.4mph
Wind Gust: 8.0mph - -
Wind- - NW
Pressure: 30.00 in 29.77 in -
Precipitation: 0.19 in    
Historical Graphs
 
 
Tabular Data for March 30, 2017
Time Temperature Dew Point Pressure Wind Wind Speed Wind Gust Humidity Rainfall Rate (Hourly) solar Conditions
00:00 68.1 °F 56.7 °F 29.98 in Calm     67% 0.00 in 0.0 W/m2 SCT
00:15 68.0 °F 57.0 °F 29.97 in Calm     68% 0.00 in 0.0 W/m2 SCT
00:30 67.7 °F 57.2 °F 29.97 in Calm     69% 0.00 in 0.0 W/m2 SCT
00:45 67.8 °F 56.9 °F 29.97 in Calm     68% 0.00 in 0.0 W/m2 SCT
01:00 68.0 °F 57.8 °F 29.97 in Calm     70% 0.00 in 0.0 W/m2 SCT
01:15 67.2 °F 57.9 °F 29.96 in Calm     72% 0.00 in 0.0 W/m2 SCT
01:30 66.5 °F 57.9 °F 29.97 in Calm     74% 0.00 in 0.0 W/m2 SCT
01:45 65.8 °F 57.7 °F 29.97 in Calm     75% 0.00 in 0.0 W/m2 SCT
02:00 65.2 °F 57.8 °F 29.96 in Calm     77% 0.00 in 0.0 W/m2 SCT
02:15 64.5 °F 56.8 °F 29.96 in Calm     76% 0.00 in 0.0 W/m2 SCT
02:30 64.5 °F 56.8 °F 29.96 in Calm     76% 0.00 in 0.0 W/m2 SCT
02:45 64.5 °F 56.8 °F 29.95 in Calm     76% 0.00 in 0.0 W/m2 SCT
03:00 64.5 °F 56.8 °F 29.95 in Calm     76% 0.00 in 0.0 W/m2 SCT
03:15 64.5 °F 56.8 °F 29.95 in Calm     76% 0.00 in 0.0 W/m2 SCT
03:30 64.5 °F 56.8 °F 29.94 in Calm     76% 0.00 in 0.0 W/m2 SCT
03:45 64.5 °F 56.8 °F 29.94 in Calm     76% 0.00 in 0.0 W/m2 SCT
04:00 64.5 °F 56.8 °F 29.95 in Calm     76% 0.00 in 0.0 W/m2 SCT
04:15 64.5 °F 56.8 °F 29.94 in Calm     76% 0.00 in 0.0 W/m2 SCT
04:30 64.5 °F 56.8 °F 29.95 in Calm     76% 0.00 in 0.0 W/m2 SCT
04:45 64.5 °F 56.8 °F 29.95 in Calm     76% 0.00 in 0.0 W/m2 SCT
05:00 64.5 °F 56.8 °F 29.95 in Calm     76% 0.00 in 0.0 W/m2 SCT
05:15 64.5 °F 56.8 °F 29.95 in Calm     76% 0.00 in 0.0 W/m2 SCT
05:30 64.5 °F 56.8 °F 29.95 in Calm     76% 0.00 in 0.0 W/m2 SCT
05:45 64.5 °F 56.8 °F 29.95 in Calm     76% 0.00 in 0.0 W/m2 SCT
06:00 64.5 °F 56.8 °F 29.95 in Calm     76% 0.00 in 0.0 W/m2 SCT
06:15 64.5 °F 56.8 °F 29.95 in Calm     76% 0.00 in 0.0 W/m2 SCT
06:30 64.5 °F 56.8 °F 29.94 in Calm     76% 0.00 in 0.0 W/m2 SCT
06:45 64.5 °F 56.8 °F 29.95 in Calm     76% 0.00 in 0.0 W/m2 SCT
07:00 64.5 °F 56.8 °F 29.95 in Calm     76% 0.00 in 0.0 W/m2 SCT
07:15 64.5 °F 56.8 °F 29.96 in Calm     76% 0.00 in 0.0 W/m2 SCT
07:30 64.5 °F 56.8 °F 29.97 in Calm     76% 0.00 in 0.0 W/m2 SCT
07:45 64.5 °F 56.8 °F 29.97 in Calm     76% 0.00 in 0.0 W/m2 SCT
08:00 64.5 °F 56.8 °F 29.98 in Calm     76% 0.00 in 0.0 W/m2 SCT
08:15 64.5 °F 56.8 °F 29.98 in Calm     76% 0.00 in 0.0 W/m2 SCT
08:30 64.5 °F 56.8 °F 29.99 in Calm     76% 0.00 in 0.0 W/m2 SCT
08:45 61.1 °F 57.5 °F 29.99 in Calm     88% 0.00 in 0.0 W/m2 SCT
09:00 62.4 °F 58.8 °F 30.00 in Calm     88% 0.00 in 0.0 W/m2 SCT
09:15 63.5 °F 58.6 °F 30.00 in Calm     84% 0.00 in 0.0 W/m2 SCT
09:30 64.4 °F 58.8 °F 30.00 in Calm     82% 0.00 in 0.0 W/m2 SCT
09:45 65.2 °F 58.5 °F 30.00 in Calm   1.0 mph 79% 0.00 in 0.0 W/m2 SCT
10:00 66.2 °F 58.4 °F 30.00 in Calm   1.0 mph 76% 0.00 in 0.0 W/m2 SCT
10:15 67.3 °F 57.2 °F 30.00 in Calm     70% 0.00 in 0.0 W/m2 SCT
10:30 69.5 °F 57.6 °F 30.00 in Calm   2.0 mph 66% 0.00 in 0.0 W/m2 SCT
10:45 71.4 °F 55.9 °F 30.00 in Calm   2.0 mph 58% 0.00 in 0.0 W/m2 SCT
11:00 72.2 °F 56.1 °F 29.99 in WNW 1.0 mph 2.0 mph 57% 0.00 in 0.0 W/m2 SCT
11:15 72.8 °F 56.2 °F 29.98 in Calm   3.0 mph 56% 0.00 in 0.0 W/m2 SCT
11:30 73.4 °F 56.3 °F 29.98 in Calm   2.0 mph 55% 0.00 in 0.0 W/m2 SCT
11:45 74.2 °F 55.4 °F 29.97 in NW 1.0 mph 3.0 mph 52% 0.00 in 0.0 W/m2 SCT
12:00 74.5 °F 56.3 °F 29.97 in Calm   3.0 mph 53% 0.00 in 0.0 W/m2 SCT
12:15 74.0 °F 55.7 °F 29.97 in Calm   3.0 mph 53% 0.00 in 0.0 W/m2 SCT
12:30 74.0 °F 56.8 °F 29.96 in NW 1.0 mph 5.0 mph 55% 0.00 in 0.0 W/m2 SCT
12:45 74.6 °F 55.3 °F 29.95 in NW 1.0 mph 5.0 mph 51% 0.00 in 0.0 W/m2 SCT
13:00 75.5 °F 55.5 °F 29.94 in WNW 1.0 mph 5.0 mph 50% 0.00 in 0.0 W/m2 SCT
13:15 77.6 °F 55.2 °F 29.93 in West 2.0 mph 6.0 mph 46% 0.00 in 0.0 W/m2 SCT
13:30 78.3 °F 54.0 °F 29.91 in WNW 1.0 mph 6.0 mph 43% 0.00 in 0.0 W/m2 SCT
13:45 79.7 °F 54.6 °F 29.91 in West 1.0 mph 5.0 mph 42% 0.00 in 0.0 W/m2 SCT
14:00 79.1 °F 53.4 °F 29.89 in NW 1.0 mph 6.0 mph 41% 0.00 in 0.0 W/m2 SCT
14:15 80.2 °F 51.6 °F 29.89 in NW 2.0 mph 5.0 mph 37% 0.00 in 0.0 W/m2 SCT
14:30 81.1 °F 52.3 °F 29.88 in WNW 2.0 mph 5.0 mph 37% 0.00 in 0.0 W/m2 SCT
14:45 81.4 °F 54.1 °F 29.86 in NNW 1.0 mph 6.0 mph 39% 0.00 in 0.0 W/m2 SCT
15:00 81.7 °F 52.2 °F 29.85 in WNW 2.0 mph 7.0 mph 36% 0.00 in 0.0 W/m2 SCT
15:15 80.9 °F 50.7 °F 29.85 in NW 3.0 mph 7.0 mph 35% 0.00 in 0.0 W/m2 SCT
15:30 80.3 °F 51.7 °F 29.84 in Calm   8.0 mph 37% 0.00 in 0.0 W/m2 SCT
15:45 80.3 °F 49.4 °F 29.83 in WNW 1.0 mph 7.0 mph 34% 0.00 in 0.0 W/m2 SCT
16:00 80.2 °F 51.6 °F 29.82 in WNW 1.0 mph 8.0 mph 37% 0.00 in 0.0 W/m2 SCT
16:15 79.9 °F 47.4 °F 29.82 in NNW 1.0 mph 6.0 mph 32% 0.00 in 0.0 W/m2 SCT
16:30 79.9 °F 47.4 °F 29.82 in NW 1.0 mph 5.0 mph 32% 0.00 in 0.0 W/m2 SCT
16:45 80.2 °F 47.7 °F 29.81 in NW 3.0 mph 8.0 mph 32% 0.00 in 0.0 W/m2 SCT
17:00 80.1 °F 47.6 °F 29.80 in NW 1.0 mph 6.0 mph 32% 0.00 in 0.0 W/m2 SCT
17:15 79.4 °F 47.0 °F 29.80 in NW 2.0 mph 6.0 mph 32% 0.00 in 0.0 W/m2 SCT
17:30 79.0 °F 48.2 °F 29.79 in Calm   5.0 mph 34% 0.00 in 0.0 W/m2 SCT
17:45 78.7 °F 49.5 °F 29.79 in WNW 1.0 mph 5.0 mph 36% 0.00 in 0.0 W/m2 SCT
18:00 78.3 °F 49.2 °F 29.79 in NW 1.0 mph 5.0 mph 36% 0.00 in 0.0 W/m2 SCT
18:15 77.9 °F 50.2 °F 29.79 in WNW 1.0 mph 3.0 mph 38% 0.00 in 0.0 W/m2 SCT
18:30 77.5 °F 50.6 °F 29.79 in Calm   2.0 mph 39% 0.00 in 0.0 W/m2 SCT
18:45 77.2 °F 50.4 °F 29.78 in Calm   5.0 mph 39% 0.00 in 0.0 W/m2 SCT
19:00 76.8 °F 51.3 °F 29.78 in Calm   2.0 mph 41% 0.00 in 0.0 W/m2 SCT
19:15 76.5 °F 51.0 °F 29.78 in Calm   5.0 mph 41% 0.00 in 0.0 W/m2 SCT
19:30 76.1 °F 51.3 °F 29.78 in Calm   3.0 mph 42% 0.00 in 0.0 W/m2 SCT
19:45 75.7 °F 51.6 °F 29.78 in Calm   2.0 mph 43% 0.00 in 0.0 W/m2 SCT
20:00 75.3 °F 51.9 °F 29.77 in Calm   2.0 mph 44% 0.00 in 0.0 W/m2 SCT
20:15 75.1 °F 52.9 °F 29.77 in Calm   3.0 mph 46% 0.00 in 0.0 W/m2 SCT
20:45 74.0 °F 53.1 °F 29.78 in Calm   1.0 mph 48% 0.00 in 0.0 W/m2 SCT
21:00 74.0 °F 53.6 °F 29.78 in Calm   1.0 mph 49% 0.00 in 0.0 W/m2 SCT
21:15 73.7 °F 53.9 °F 29.78 in Calm   1.0 mph 50% 0.00 in 0.0 W/m2 SCT
21:30 73.5 °F 54.2 °F 29.79 in WNW 1.0 mph 3.0 mph 51% 0.00 in 0.0 W/m2 SCT
21:45 72.3 °F 55.7 °F 29.79 in Calm   5.0 mph 56% 0.00 in 0.0 W/m2 SCT
22:00 70.6 °F 57.8 °F 29.82 in North 1.0 mph 3.0 mph 64% 0.00 in 0.0 W/m2 SCT
22:15 64.8 °F 58.5 °F 29.78 in Calm   5.0 mph 80% 0.01 in 0.0 W/m2 SCT
22:30 63.1 °F 58.5 °F 29.80 in Calm   1.0 mph 85% 0.01 in 0.0 W/m2 SCT
22:45 62.4 °F 58.5 °F 29.77 in Calm   2.0 mph 87% 0.01 in 0.0 W/m2 SCT
23:00 62.3 °F 58.4 °F 29.81 in NW 1.0 mph 6.0 mph 87% 0.02 in 0.0 W/m2 RA
23:15 61.4 °F 57.8 °F 29.83 in Calm   7.0 mph 88% 0.06 in 0.0 W/m2 SCT
23:30 60.7 °F 57.4 °F 29.83 in Calm   5.0 mph 89% 0.04 in 0.0 W/m2 SCT
23:45 60.3 °F 57.0 °F 29.79 in Calm   2.0 mph 89% 0.04 in 0.0 W/m2 RA
Piedmont Bend
Compliments of Weather Underground - 4 mb